Time;durP1;ratioP1;P1;durP2;ratioP2;P2;SDS_P1;SDS_P2;PMS_P1;PMS_P2;Temp;Humidity;BMP_temperature;BMP_pressure;BME280_temperature;BME280_humidity;BME280_pressure;Samples;Min_cycle;Max_cycle;Signal;HPM_P1;HPM_P2
2023/10/17 00:01:23;;;;;;;3.30;2.83;;;;;;;;;;5052535;28;20247;-83
2023/10/17 00:03:53;;;;;;;3.20;2.90;;;;;;;;;;5051467;28;20569;-83
2023/10/17 00:06:22;;;;;;;2.53;2.43;;;;;;;;;;5053610;28;20314;-83
2023/10/17 00:08:51;;;;;;;2.73;2.53;;;;;;;;;;5053838;28;20854;-83
2023/10/17 00:11:20;;;;;;;3.03;2.80;;;;;;;;;;5053357;28;20306;-83
2023/10/17 00:13:59;;;;;;;4.67;3.13;;;;;;;;;;5054288;28;20208;-83
2023/10/17 00:16:29;;;;;;;3.90;2.90;;;;;;;;;;5053700;28;20298;-83
2023/10/17 00:18:57;;;;;;;7.53;2.90;;;;;;;;;;5053727;28;20244;-83
2023/10/17 00:21:25;;;;;;;3.40;3.10;;;;;;;;;;5053297;28;20306;-83
2023/10/17 00:23:53;;;;;;;4.07;2.40;;;;;;;;;;5053896;28;20209;-83
2023/10/17 00:26:20;;;;;;;2.70;2.60;;;;;;;;;;5053088;28;21007;-82
2023/10/17 00:28:49;;;;;;;2.63;2.43;;;;;;;;;;5053776;28;20600;-82
2023/10/17 00:31:16;;;;;;;2.73;2.53;;;;;;;;;;5052913;28;20256;-83
2023/10/17 00:33:48;;;;;;;2.60;2.40;;;;;;;;;;5053850;28;20300;-83
2023/10/17 00:36:16;;;;;;;2.83;2.67;;;;;;;;;;5061314;28;21033;-82
2023/10/17 00:38:45;;;;;;;2.70;2.50;;;;;;;;;;5053629;28;20235;-82
2023/10/17 00:41:23;;;;;;;2.83;2.63;;;;;;;;;;5052346;28;20230;-83
2023/10/17 00:43:53;;;;;;;3.07;2.73;;;;;;;;;;5054189;28;20246;-83
2023/10/17 00:46:20;;;;;;;2.80;2.57;;;;;;;;;;5045210;28;20239;-83
2023/10/17 00:48:49;;;;;;;2.97;2.77;;;;;;;;;;5053007;28;20226;-83
2023/10/17 00:51:19;;;;;;;3.43;3.13;;;;;;;;;;5052690;28;20231;-83
2023/10/17 00:53:47;;;;;;;2.77;2.57;;;;;;;;;;5049323;28;20224;-83
2023/10/17 00:56:14;;;;;;;3.07;2.77;;;;;;;;;;5052175;28;20233;-82
2023/10/17 00:58:42;;;;;;;3.03;2.80;;;;;;;;;;5052809;28;20285;-83
2023/10/17 01:01:16;;;;;;;3.30;2.73;;;;;;;;;;5052661;28;20252;-83
2023/10/17 01:03:45;;;;;;;3.30;3.00;;;;;;;;;;5060651;28;20213;-82
2023/10/17 01:06:23;;;;;;;3.37;3.07;;;;;;;;;;5067125;28;20232;-83
2023/10/17 01:08:51;;;;;;;3.20;2.90;;;;;;;;;;5050174;28;20236;-83
2023/10/17 01:11:21;;;;;;;3.57;2.80;;;;;;;;;;5051981;28;20235;-83
2023/10/17 01:13:50;;;;;;;3.00;2.80;;;;;;;;;;5053015;28;20259;-83
2023/10/17 01:16:18;;;;;;;5.83;3.33;;;;;;;;;;5052088;28;20235;-82
2023/10/17 01:18:45;;;;;;;4.97;3.43;;;;;;;;;;5052888;28;20236;-84
2023/10/17 01:21:13;;;;;;;3.47;3.17;;;;;;;;;;5051638;28;20238;-83
2023/10/17 01:23:42;;;;;;;2.87;2.67;;;;;;;;;;5052738;28;20213;-83
2023/10/17 01:26:14;;;;;;;4.50;3.00;;;;;;;;;;5052143;28;20267;-83
2023/10/17 01:28:45;;;;;;;3.57;3.03;;;;;;;;;;5052373;28;20223;-83
2023/10/17 01:31:14;;;;;;;3.07;2.87;;;;;;;;;;5051992;28;20264;-83
2023/10/17 01:33:42;;;;;;;3.10;2.87;;;;;;;;;;5052418;28;20238;-83
2023/10/17 01:36:10;;;;;;;3.43;3.17;;;;;;;;;;5052182;28;20647;-83
2023/10/17 01:38:38;;;;;;;3.47;3.03;;;;;;;;;;5052069;28;20242;-83
2023/10/17 01:41:06;;;;;;;3.83;2.97;;;;;;;;;;5051568;28;20328;-83
2023/10/17 01:43:40;;;;;;;3.00;2.80;;;;;;;;;;5052465;28;20272;-82
2023/10/17 01:46:08;;;;;;;4.03;2.77;;;;;;;;;;5051313;28;20696;-83
2023/10/17 01:48:36;;;;;;;3.23;3.03;;;;;;;;;;5052135;28;20287;-82
2023/10/17 01:51:06;;;;;;;3.00;2.90;;;;;;;;;;5051439;28;20231;-82
2023/10/17 01:53:34;;;;;;;4.37;2.73;;;;;;;;;;5052323;28;20206;-83
2023/10/17 01:56:13;;;;;;;2.60;2.40;;;;;;;;;;5051386;28;20795;-83
2023/10/17 01:58:42;;;;;;;6.67;2.77;;;;;;;;;;5051991;28;20225;-83
2023/10/17 02:01:12;;;;;;;3.23;2.93;;;;;;;;;;5050890;28;20251;-83
2023/10/17 02:03:39;;;;;;;3.37;2.87;;;;;;;;;;5051859;28;20299;-83
2023/10/17 02:06:13;;;;;;;2.87;2.57;;;;;;;;;;5050851;28;20314;-83
2023/10/17 02:08:41;;;;;;;3.13;2.80;;;;;;;;;;5051671;28;20272;-82
2023/10/17 02:11:12;;;;;;;3.40;3.10;;;;;;;;;;5060797;28;20577;-83
2023/10/17 02:13:40;;;;;;;3.43;3.13;;;;;;;;;;5057693;28;20203;-83
2023/10/17 02:16:10;;;;;;;3.10;2.80;;;;;;;;;;5050115;28;20230;-83
2023/10/17 02:18:38;;;;;;;3.23;2.73;;;;;;;;;;5057509;28;20347;-82
2023/10/17 02:21:05;;;;;;;6.13;3.20;;;;;;;;;;5053234;28;20241;-83
2023/10/17 02:23:39;;;;;;;3.60;3.30;;;;;;;;;;5051805;28;20216;-83
2023/10/17 02:26:10;;;;;;;4.97;3.20;;;;;;;;;;5059635;28;20229;-83
2023/10/17 02:28:44;;;;;;;3.40;3.10;;;;;;;;;;5051797;28;20261;-82
2023/10/17 02:31:14;;;;;;;3.10;2.90;;;;;;;;;;5061459;28;20225;-83
2023/10/17 02:33:42;;;;;;;4.07;3.07;;;;;;;;;;5063609;28;20296;-83
2023/10/17 02:36:12;;;;;;;3.37;2.70;;;;;;;;;;5061178;28;20233;-82
2023/10/17 02:38:39;;;;;;;3.13;2.93;;;;;;;;;;5061069;28;20651;-82
2023/10/17 02:41:08;;;;;;;4.30;2.97;;;;;;;;;;5052880;28;20237;-82
2023/10/17 02:43:37;;;;;;;4.70;3.50;;;;;;;;;;5056913;28;20295;-83
2023/10/17 02:46:05;;;;;;;3.37;3.17;;;;;;;;;;5061924;28;20228;-83
2023/10/17 02:48:38;;;;;;;3.00;2.80;;;;;;;;;;5051560;28;20217;-82
2023/10/17 02:51:11;;;;;;;3.50;3.20;;;;;;;;;;5050793;28;20229;-82
2023/10/17 02:53:43;;;;;;;3.80;3.40;;;;;;;;;;5051709;28;20198;-82
2023/10/17 02:56:19;;;;;;;3.53;2.73;;;;;;;;;;5051348;28;20637;-83
2023/10/17 02:58:49;;;;;;;3.40;3.10;;;;;;;;;;5050948;28;20779;-83
2023/10/17 03:01:16;;;;;;;3.47;3.07;;;;;;;;;;5050255;28;20653;-84
2023/10/17 03:03:49;;;;;;;3.57;3.27;;;;;;;;;;5051021;28;20548;-83
2023/10/17 03:06:17;;;;;;;3.03;2.83;;;;;;;;;;5049873;28;20800;-83
2023/10/17 03:08:49;;;;;;;9.77;3.23;;;;;;;;;;5063031;28;20285;-82
2023/10/17 03:11:26;;;;;;;3.07;2.80;;;;;;;;;;5065810;28;20229;-82
2023/10/17 03:13:53;;;;;;;3.10;2.90;;;;;;;;;;5066593;28;20208;-82
2023/10/17 03:16:25;;;;;;;4.67;3.03;;;;;;;;;;5077182;28;20243;-82
2023/10/17 03:18:57;;;;;;;4.53;2.77;;;;;;;;;;5065363;28;20238;-82
2023/10/17 03:21:34;;;;;;;3.77;3.43;;;;;;;;;;5067115;28;20292;-81
2023/10/17 03:24:01;;;;;;;3.97;3.40;;;;;;;;;;5071303;28;20225;-83
2023/10/17 03:26:29;;;;;;;3.43;3.07;;;;;;;;;;5066658;28;20256;-82
2023/10/17 03:28:56;;;;;;;4.77;2.90;;;;;;;;;;5073155;28;20227;-83
2023/10/17 03:31:26;;;;;;;6.00;3.07;;;;;;;;;;5056212;28;20225;-83
2023/10/17 03:33:57;;;;;;;3.50;3.20;;;;;;;;;;5057536;28;20202;-83
2023/10/17 03:36:41;;;;;;;3.13;2.93;;;;;;;;;;5056686;28;20233;-83
2023/10/17 03:39:20;;;;;;;2.67;2.53;;;;;;;;;;5056835;28;20636;-83
2023/10/17 03:41:48;;;;;;;3.37;3.07;;;;;;;;;;5051181;28;20233;-83
2023/10/17 03:44:22;;;;;;;3.10;2.80;;;;;;;;;;5056690;28;20299;-83
2023/10/17 03:46:49;;;;;;;3.30;3.10;;;;;;;;;;5056633;28;20705;-81
2023/10/17 03:49:19;;;;;;;4.97;3.23;;;;;;;;;;5056949;28;20336;-81
2023/10/17 03:51:52;;;;;;;3.83;2.90;;;;;;;;;;5062777;28;20232;-83
2023/10/17 03:54:22;;;;;;;4.07;3.37;;;;;;;;;;5069692;28;20212;-81
2023/10/17 03:56:56;;;;;;;3.37;3.13;;;;;;;;;;5056797;28;20283;-82
2023/10/17 03:59:38;;;;;;;8.27;3.37;;;;;;;;;;5057526;28;20244;-81
2023/10/17 04:02:06;;;;;;;6.40;3.50;;;;;;;;;;5056683;28;20244;-82
2023/10/17 04:04:36;;;;;;;5.03;3.50;;;;;;;;;;5056448;28;20206;-82
2023/10/17 04:07:06;;;;;;;3.23;3.03;;;;;;;;;;5056434;28;20233;-82
2023/10/17 04:09:47;;;;;;;3.43;3.17;;;;;;;;;;5056945;28;20228;-82
2023/10/17 04:12:20;;;;;;;3.97;2.87;;;;;;;;;;5056198;28;20248;-82
2023/10/17 04:14:54;;;;;;;3.20;3.00;;;;;;;;;;5057316;28;20202;-82
2023/10/17 04:17:24;;;;;;;3.70;3.43;;;;;;;;;;5055973;28;20287;-84
2023/10/17 04:19:58;;;;;;;3.90;3.00;;;;;;;;;;5056388;28;20249;-83
2023/10/17 04:22:29;;;;;;;3.73;3.40;;;;;;;;;;5055896;28;20237;-83
2023/10/17 04:25:00;;;;;;;3.90;3.13;;;;;;;;;;5057078;28;20222;-83
2023/10/17 04:27:31;;;;;;;3.63;3.33;;;;;;;;;;5056568;28;20305;-83
2023/10/17 04:29:58;;;;;;;3.37;3.17;;;;;;;;;;5057055;28;20198;-83
2023/10/17 04:32:28;;;;;;;3.60;2.90;;;;;;;;;;5056341;28;20226;-83
2023/10/17 04:34:57;;;;;;;3.30;3.00;;;;;;;;;;5057174;28;20583;-84
2023/10/17 04:37:32;;;;;;;3.23;2.90;;;;;;;;;;5054186;28;20236;-83
2023/10/17 04:42:56;;;;;;;3.53;3.33;;;;;;;;;;5052065;28;20689;-85
2023/10/17 04:45:24;;;;;;;5.80;3.67;;;;;;;;;;5052730;28;20262;-83
2023/10/17 04:48:10;;;;;;;5.43;3.60;;;;;;;;;;5053690;28;20218;-83
2023/10/17 04:50:45;;;;;;;4.07;3.70;;;;;;;;;;5068314;28;20285;-82
2023/10/17 04:53:21;;;;;;;3.63;3.10;;;;;;;;;;5073156;28;20201;-82
2023/10/17 04:58:39;;;;;;;3.53;3.23;;;;;;;;;;5065651;28;20284;-82
2023/10/17 05:01:32;;;;;;;3.70;3.13;;;;;;;;;;5072365;28;20240;-82
2023/10/17 05:03:58;;;;;;;3.53;3.17;;;;;;;;;;5066177;28;20202;-82
2023/10/17 05:07:07;;;;;;;5.60;3.60;;;;;;;;;;5052426;28;20272;-82
2023/10/17 06:18:18;;;;;;;3.07;2.87;;;;;;;;;;5071764;28;20227;-83
2023/10/17 06:26:46;;;;;;;4.17;3.70;;;;;;;;;;5050336;28;20315;-83
2023/10/17 06:30:05;;;;;;;4.90;3.00;;;;;;;;;;5046039;28;20233;-83
2023/10/17 06:32:04;;;;;;;4.10;3.50;;;;;;;;;;5045684;28;20244;-83
2023/10/17 06:34:33;;;;;;;6.37;3.23;;;;;;;;;;5051355;28;20293;-83
2023/10/17 06:37:01;;;;;;;3.60;3.30;;;;;;;;;;5044258;28;20226;-83
2023/10/17 06:39:37;;;;;;;5.23;4.07;;;;;;;;;;5041696;28;20234;-82
2023/10/17 06:42:14;;;;;;;3.30;3.10;;;;;;;;;;5042691;28;20236;-83
2023/10/17 06:44:53;;;;;;;3.90;3.33;;;;;;;;;;5036431;28;20202;-83
2023/10/17 06:47:22;;;;;;;4.80;3.50;;;;;;;;;;5060126;28;20230;-83
2023/10/17 06:50:17;;;;;;;4.87;3.60;;;;;;;;;;5051589;28;20244;-83
2023/10/17 06:53:01;;;;;;;3.90;3.60;;;;;;;;;;5051247;28;20282;-83
2023/10/17 06:55:29;;;;;;;8.40;4.33;;;;;;;;;;5050775;28;20233;-84
2023/10/17 06:58:09;;;;;;;4.07;3.70;;;;;;;;;;5051461;28;20272;-83
2023/10/17 07:00:44;;;;;;;4.67;3.57;;;;;;;;;;5058930;28;20225;-83
2023/10/17 07:03:14;;;;;;;5.13;4.10;;;;;;;;;;5053874;28;20283;-83
2023/10/17 07:05:49;;;;;;;3.60;3.30;;;;;;;;;;5054916;28;20239;-83
2023/10/17 07:08:16;;;;;;;4.47;4.07;;;;;;;;;;5062297;28;20695;-84
2023/10/17 07:10:59;;;;;;;3.63;3.37;;;;;;;;;;5050773;28;20237;-86
2023/10/17 07:13:49;;;;;;;4.90;4.30;;;;;;;;;;5062125;28;20656;-83
2023/10/17 07:16:24;;;;;;;4.83;4.33;;;;;;;;;;5050903;28;20230;-84
2023/10/17 07:18:52;;;;;;;4.17;3.77;;;;;;;;;;5051285;28;20226;-83
2023/10/17 07:21:23;;;;;;;4.70;3.77;;;;;;;;;;5050396;28;20236;-84
2023/10/17 07:23:53;;;;;;;4.13;3.73;;;;;;;;;;5051009;28;20224;-82
2023/10/17 07:26:38;;;;;;;5.87;3.87;;;;;;;;;;5058553;28;20312;-82
2023/10/17 07:29:05;;;;;;;4.60;3.57;;;;;;;;;;5051024;28;20221;-83
2023/10/17 07:31:34;;;;;;;5.33;4.53;;;;;;;;;;5061011;28;20232;-83
2023/10/17 07:34:18;;;;;;;4.80;3.83;;;;;;;;;;5056251;28;20206;-83
2023/10/17 07:36:48;;;;;;;3.77;3.47;;;;;;;;;;5029243;28;20250;-84
2023/10/17 07:39:29;;;;;;;6.83;4.20;;;;;;;;;;5030852;28;20243;-83
2023/10/17 07:41:57;;;;;;;4.20;3.80;;;;;;;;;;5030128;28;20609;-85
2023/10/17 07:44:26;;;;;;;5.50;4.23;;;;;;;;;;5030817;28;20205;-84
2023/10/17 07:47:08;;;;;;;6.27;4.83;;;;;;;;;;5030415;28;20235;-83
2023/10/17 07:49:36;;;;;;;5.17;4.00;;;;;;;;;;5030563;28;20241;-83
2023/10/17 07:52:12;;;;;;;4.30;3.90;;;;;;;;;;5030093;28;20221;-84
2023/10/17 07:54:45;;;;;;;5.87;4.30;;;;;;;;;;5030959;28;20561;-86
2023/10/17 07:57:17;;;;;;;8.03;5.13;;;;;;;;;;5048345;28;20308;-87
2023/10/17 07:59:50;;;;;;;3.80;3.50;;;;;;;;;;5042906;28;20742;-84
2023/10/17 08:02:20;;;;;;;4.43;4.03;;;;;;;;;;5049840;28;20287;-83
2023/10/17 08:04:48;;;;;;;4.50;4.10;;;;;;;;;;5050608;28;20231;-83
2023/10/17 08:07:15;;;;;;;7.07;4.70;;;;;;;;;;5049544;28;20715;-83
2023/10/17 08:09:50;;;;;;;12.93;4.50;;;;;;;;;;5050197;28;20233;-83
2023/10/17 08:12:21;;;;;;;6.90;4.90;;;;;;;;;;5049971;28;20666;-83
2023/10/17 08:14:57;;;;;;;5.40;4.67;;;;;;;;;;5053880;28;20672;-83
2023/10/17 08:17:27;;;;;;;6.27;4.30;;;;;;;;;;5053891;28;20233;-83
2023/10/17 08:20:38;;;;;;;4.30;3.90;;;;;;;;;;5054264;28;20231;-83
2023/10/17 08:23:06;;;;;;;5.97;4.47;;;;;;;;;;5042678;28;20425;-83
2023/10/17 08:25:39;;;;;;;6.53;4.10;;;;;;;;;;5057362;28;20303;-83
2023/10/17 08:28:31;;;;;;;4.80;4.40;;;;;;;;;;5053812;28;20229;-83
2023/10/17 08:30:59;;;;;;;4.97;4.20;;;;;;;;;;5065667;28;20226;-83
2023/10/17 08:33:36;;;;;;;5.20;4.33;;;;;;;;;;5064742;28;20294;-83
2023/10/17 08:36:03;;;;;;;5.87;4.47;;;;;;;;;;5052876;28;20311;-83
2023/10/17 08:38:32;;;;;;;6.53;4.03;;;;;;;;;;5053219;28;20245;-84
2023/10/17 08:41:06;;;;;;;6.23;4.03;;;;;;;;;;5052805;28;20225;-83
2023/10/17 08:43:32;;;;;;;4.63;4.23;;;;;;;;;;5053112;28;20692;-83
2023/10/17 08:45:59;;;;;;;4.77;3.70;;;;;;;;;;5058393;28;20593;-83
2023/10/17 08:48:28;;;;;;;4.23;3.83;;;;;;;;;;5073027;28;20224;-83
2023/10/17 08:50:56;;;;;;;3.57;3.27;;;;;;;;;;5072677;28;20225;-82
2023/10/17 08:53:23;;;;;;;3.70;3.40;;;;;;;;;;5063152;28;20221;-83
2023/10/17 08:55:51;;;;;;;5.63;3.60;;;;;;;;;;5054938;28;20231;-83
2023/10/17 08:58:24;;;;;;;4.00;3.60;;;;;;;;;;5051143;28;20238;-83
2023/10/17 09:00:55;;;;;;;6.10;3.50;;;;;;;;;;5052777;28;20249;-83
2023/10/17 09:03:24;;;;;;;3.60;3.30;;;;;;;;;;5052832;28;20283;-83
2023/10/17 09:06:06;;;;;;;3.40;3.20;;;;;;;;;;5051591;28;20225;-84
2023/10/17 09:08:45;;;;;;;4.07;3.67;;;;;;;;;;5072884;28;20225;-84
2023/10/17 09:11:15;;;;;;;5.63;3.50;;;;;;;;;;5064447;28;20313;-84
2023/10/17 09:16:34;;;;;;;4.00;3.60;;;;;;;;;;5050743;28;20587;-84
2023/10/17 09:19:08;;;;;;;3.50;3.20;;;;;;;;;;5058115;28;20225;-84
2023/10/17 09:21:41;;;;;;;4.57;3.20;;;;;;;;;;5057418;28;20232;-84
2023/10/17 09:24:29;;;;;;;3.30;3.10;;;;;;;;;;5057598;28;20236;-85
2023/10/17 09:26:58;;;;;;;2.83;2.63;;;;;;;;;;5054086;28;20374;-84
2023/10/17 09:29:27;;;;;;;3.57;3.27;;;;;;;;;;5068281;28;20225;-84
2023/10/17 09:31:54;;;;;;;3.20;2.87;;;;;;;;;;5064322;28;20217;-84
2023/10/17 09:34:22;;;;;;;2.93;2.73;;;;;;;;;;5071657;28;20205;-84
2023/10/17 09:36:51;;;;;;;5.23;3.17;;;;;;;;;;5055319;28;20230;-84
2023/10/17 09:39:25;;;;;;;3.60;3.40;;;;;;;;;;5059894;28;20234;-84
2023/10/17 09:41:53;;;;;;;3.53;3.23;;;;;;;;;;5055471;28;20247;-84
2023/10/17 09:44:20;;;;;;;3.07;2.87;;;;;;;;;;5055502;28;20230;-84
2023/10/17 09:46:50;;;;;;;3.87;3.50;;;;;;;;;;5062199;28;20232;-84
2023/10/17 09:49:19;;;;;;;5.47;3.20;;;;;;;;;;5055699;28;20226;-84
2023/10/17 09:51:46;;;;;;;3.67;3.37;;;;;;;;;;5070589;28;20236;-84
2023/10/17 09:54:16;;;;;;;4.20;3.80;;;;;;;;;;5064319;28;20205;-84
2023/10/17 09:56:45;;;;;;;5.03;3.47;;;;;;;;;;5069562;28;20595;-84
2023/10/17 09:59:13;;;;;;;4.03;3.60;;;;;;;;;;5070901;28;20228;-83
2023/10/17 10:01:40;;;;;;;4.37;3.50;;;;;;;;;;5052192;28;20233;-84
2023/10/17 10:04:09;;;;;;;3.70;3.40;;;;;;;;;;5051489;28;20727;-84
2023/10/17 10:06:39;;;;;;;4.00;3.50;;;;;;;;;;5060999;28;20225;-84
2023/10/17 10:09:26;;;;;;;4.40;3.50;;;;;;;;;;5065757;28;20629;-84
2023/10/17 10:12:01;;;;;;;5.93;3.40;;;;;;;;;;5058968;28;20781;-84
2023/10/17 10:14:44;;;;;;;6.27;3.57;;;;;;;;;;5060510;28;20212;-83
2023/10/17 10:17:13;;;;;;;3.03;2.83;;;;;;;;;;5055846;28;20229;-84
2023/10/17 10:20:08;;;;;;;6.53;3.70;;;;;;;;;;5050881;28;20265;-84
2023/10/17 10:22:52;;;;;;;3.33;3.03;;;;;;;;;;5026920;28;20229;-84
2023/10/17 10:25:20;;;;;;;4.00;3.17;;;;;;;;;;5051231;28;20212;-85
2023/10/17 10:27:50;;;;;;;4.37;3.47;;;;;;;;;;5050470;28;20210;-84
2023/10/17 10:30:33;;;;;;;4.57;3.20;;;;;;;;;;5066352;28;20267;-84
2023/10/17 10:33:01;;;;;;;3.33;3.07;;;;;;;;;;5071190;28;20197;-84
2023/10/17 10:35:28;;;;;;;5.20;3.00;;;;;;;;;;5070564;28;20233;-85
2023/10/17 10:37:56;;;;;;;3.43;2.93;;;;;;;;;;5070414;28;20236;-85
2023/10/17 10:40:24;;;;;;;3.23;2.97;;;;;;;;;;5054487;28;20237;-85
2023/10/17 10:42:53;;;;;;;4.13;2.93;;;;;;;;;;5051523;28;20222;-85
2023/10/17 10:45:28;;;;;;;3.30;2.97;;;;;;;;;;5050699;28;20574;-85
2023/10/17 10:47:58;;;;;;;3.40;3.10;;;;;;;;;;5050470;28;20308;-85
2023/10/17 10:50:27;;;;;;;4.73;3.57;;;;;;;;;;5058663;28;20255;-85
2023/10/17 10:52:54;;;;;;;3.17;2.93;;;;;;;;;;5058380;28;20213;-84
2023/10/17 10:55:22;;;;;;;4.40;3.20;;;;;;;;;;5058644;28;20239;-84
2023/10/17 10:57:50;;;;;;;3.50;3.20;;;;;;;;;;5050648;28;20601;-84
2023/10/17 11:00:19;;;;;;;3.50;3.17;;;;;;;;;;5058694;28;20230;-84
2023/10/17 11:02:46;;;;;;;2.97;2.77;;;;;;;;;;5066139;28;20229;-84
2023/10/17 11:05:15;;;;;;;4.30;3.50;;;;;;;;;;5066784;28;20282;-84
2023/10/17 11:07:42;;;;;;;3.03;2.83;;;;;;;;;;5061738;28;20224;-88
2023/10/17 11:10:11;;;;;;;4.50;2.93;;;;;;;;;;5061617;28;20197;-86
2023/10/17 11:12:38;;;;;;;3.23;2.87;;;;;;;;;;5069247;28;20722;-85
2023/10/17 11:15:10;;;;;;;4.03;2.87;;;;;;;;;;5058826;28;20206;-86
2023/10/17 11:17:39;;;;;;;3.00;2.80;;;;;;;;;;5050501;28;20248;-86
2023/10/17 11:20:14;;;;;;;7.23;3.20;;;;;;;;;;5049962;28;20213;-86
2023/10/17 11:22:41;;;;;;;3.20;2.90;;;;;;;;;;5067501;28;20212;-86
2023/10/17 11:25:13;;;;;;;7.87;3.50;;;;;;;;;;5056341;28;20205;-86
2023/10/17 11:27:41;;;;;;;4.00;3.00;;;;;;;;;;5068737;28;20209;-85
2023/10/17 11:30:18;;;;;;;2.87;2.67;;;;;;;;;;5064675;28;20205;-86
2023/10/17 11:32:47;;;;;;;2.93;2.60;;;;;;;;;;5071521;28;20283;-86
2023/10/17 11:35:29;;;;;;;2.60;2.40;;;;;;;;;;5062417;28;20607;-86
2023/10/17 11:37:56;;;;;;;2.73;2.53;;;;;;;;;;5047373;28;20320;-86
2023/10/17 11:40:38;;;;;;;2.73;2.33;;;;;;;;;;5070394;28;20257;-86
2023/10/17 11:43:15;;;;;;;5.07;2.73;;;;;;;;;;5071071;28;20253;-87
2023/10/17 11:45:42;;;;;;;3.27;2.90;;;;;;;;;;5053320;28;20731;-86
2023/10/17 11:48:26;;;;;;;6.17;2.80;;;;;;;;;;5053707;28;20222;-86
2023/10/17 11:51:12;;;;;;;3.57;2.50;;;;;;;;;;5066530;28;20229;-86
2023/10/17 11:54:03;;;;;;;5.70;2.63;;;;;;;;;;5067468;28;20233;-84
2023/10/17 11:56:30;;;;;;;6.73;2.47;;;;;;;;;;5084420;28;20217;-87
2023/10/17 11:58:57;;;;;;;2.77;2.57;;;;;;;;;;5093291;28;20214;-86
2023/10/17 12:01:24;;;;;;;3.00;2.33;;;;;;;;;;5076183;28;20313;-86
2023/10/17 12:03:56;;;;;;;3.10;2.63;;;;;;;;;;5066467;28;20228;-84
2023/10/17 12:06:26;;;;;;;2.70;2.43;;;;;;;;;;5057995;28;20787;-84
2023/10/17 12:08:53;;;;;;;4.73;2.60;;;;;;;;;;5062260;28;20724;-84
2023/10/17 12:11:21;;;;;;;2.53;2.40;;;;;;;;;;5061092;28;20243;-84
2023/10/17 12:13:48;;;;;;;2.70;2.50;;;;;;;;;;5063946;28;20264;-86
2023/10/17 12:16:17;;;;;;;3.30;2.53;;;;;;;;;;5065466;28;20251;-84
2023/10/17 12:18:44;;;;;;;3.80;2.80;;;;;;;;;;5063215;28;20226;-84
2023/10/17 12:21:15;;;;;;;3.00;2.30;;;;;;;;;;5060106;28;20222;-85
2023/10/17 12:23:42;;;;;;;2.40;2.20;;;;;;;;;;5062410;28;20230;-85
2023/10/17 12:26:13;;;;;;;2.80;2.40;;;;;;;;;;5067522;28;20225;-85
2023/10/17 12:28:41;;;;;;;2.17;2.07;;;;;;;;;;5064050;28;20223;-85
2023/10/17 12:31:09;;;;;;;3.43;2.90;;;;;;;;;;5055874;28;20226;-85
2023/10/17 12:33:36;;;;;;;2.60;2.20;;;;;;;;;;5054812;28;20206;-84
2023/10/17 12:36:04;;;;;;;2.30;2.10;;;;;;;;;;5062978;28;20249;-85
2023/10/17 12:38:34;;;;;;;3.63;2.33;;;;;;;;;;5069192;28;20324;-85
2023/10/17 12:41:03;;;;;;;2.30;2.20;;;;;;;;;;5054141;28;20222;-85
2023/10/17 12:43:31;;;;;;;3.93;2.30;;;;;;;;;;5062806;28;20260;-85
2023/10/17 12:45:58;;;;;;;2.80;2.53;;;;;;;;;;5073672;28;20695;-85
2023/10/17 12:48:25;;;;;;;3.43;2.60;;;;;;;;;;5074073;28;20229;-85
2023/10/17 12:50:52;;;;;;;2.50;2.30;;;;;;;;;;5056798;28;20243;-85
2023/10/17 12:53:20;;;;;;;2.77;2.47;;;;;;;;;;5066322;28;20213;-85
2023/10/17 12:55:48;;;;;;;2.43;2.23;;;;;;;;;;5063198;28;20923;-86
2023/10/17 12:58:18;;;;;;;2.70;2.47;;;;;;;;;;5060296;28;20723;-86
2023/10/17 13:00:47;;;;;;;2.90;2.40;;;;;;;;;;5072047;28;20690;-86
2023/10/17 13:03:15;;;;;;;2.37;2.10;;;;;;;;;;5068370;28;20289;-86
2023/10/17 13:05:42;;;;;;;5.37;2.50;;;;;;;;;;5071114;28;20226;-86
2023/10/17 13:08:09;;;;;;;5.00;2.50;;;;;;;;;;5064077;28;20225;-86
2023/10/17 13:10:36;;;;;;;4.63;2.10;;;;;;;;;;5073353;28;20225;-85
2023/10/17 13:13:05;;;;;;;2.57;2.37;;;;;;;;;;5073704;28;20206;-85
2023/10/17 13:15:32;;;;;;;2.93;2.63;;;;;;;;;;5057430;28;20225;-86
2023/10/17 13:18:03;;;;;;;2.73;2.37;;;;;;;;;;5057403;28;20244;-88
2023/10/17 13:20:31;;;;;;;6.07;2.60;;;;;;;;;;5065614;28;20242;-87
2023/10/17 13:23:03;;;;;;;3.47;2.30;;;;;;;;;;5057940;28;20605;-86
2023/10/17 13:25:34;;;;;;;2.10;2.00;;;;;;;;;;5057405;28;20232;-87
2023/10/17 13:28:01;;;;;;;2.40;2.20;;;;;;;;;;5061874;28;20632;-85
2023/10/17 13:30:29;;;;;;;2.13;2.03;;;;;;;;;;5052526;28;20237;-85
2023/10/17 13:32:57;;;;;;;2.47;2.27;;;;;;;;;;5063538;28;20205;-85
2023/10/17 13:35:24;;;;;;;3.73;2.07;;;;;;;;;;5070662;28;20225;-85
2023/10/17 13:37:54;;;;;;;3.30;2.43;;;;;;;;;;5062898;28;20244;-85
2023/10/17 13:40:22;;;;;;;2.83;2.50;;;;;;;;;;5065112;28;20229;-86
2023/10/17 13:42:51;;;;;;;2.43;2.23;;;;;;;;;;5060480;28;20205;-85
2023/10/17 13:45:21;;;;;;;4.33;2.10;;;;;;;;;;5059701;28;20226;-85
2023/10/17 13:47:49;;;;;;;6.23;2.43;;;;;;;;;;5070248;28;20318;-85
2023/10/17 13:50:18;;;;;;;2.33;2.13;;;;;;;;;;5059970;28;20206;-85
2023/10/17 13:52:46;;;;;;;2.40;2.20;;;;;;;;;;5061773;28;20241;-85
2023/10/17 13:55:23;;;;;;;2.90;2.10;;;;;;;;;;5063146;28;20220;-85
2023/10/17 13:57:50;;;;;;;2.30;2.10;;;;;;;;;;5061255;28;20233;-86
2023/10/17 14:00:19;;;;;;;2.00;1.90;;;;;;;;;;5051151;28;20225;-86
2023/10/17 14:02:49;;;;;;;2.17;1.97;;;;;;;;;;5051994;28;20225;-85
2023/10/17 14:05:19;;;;;;;3.57;2.30;;;;;;;;;;5064684;28;20328;-85
2023/10/17 14:07:48;;;;;;;1.90;1.80;;;;;;;;;;5054970;28;20221;-85
2023/10/17 14:10:16;;;;;;;3.13;2.30;;;;;;;;;;5065432;28;20615;-85
2023/10/17 14:12:46;;;;;;;2.30;2.10;;;;;;;;;;5059792;28;20201;-84
2023/10/17 14:15:14;;;;;;;2.80;1.97;;;;;;;;;;5056106;28;20198;-85
2023/10/17 14:17:46;;;;;;;2.30;2.10;;;;;;;;;;5053954;28;20202;-85
2023/10/17 14:20:18;;;;;;;2.20;2.00;;;;;;;;;;5050997;28;20220;-85
2023/10/17 14:22:58;;;;;;;2.83;1.97;;;;;;;;;;5068722;28;20208;-85
2023/10/17 14:28:08;;;;;;;2.13;1.90;;;;;;;;;;5042285;28;20684;-85
2023/10/17 14:30:37;;;;;;;2.37;2.00;;;;;;;;;;5058585;28;20225;-85
2023/10/17 14:33:04;;;;;;;4.23;2.03;;;;;;;;;;5055039;28;20201;-85
2023/10/17 14:35:34;;;;;;;2.20;2.00;;;;;;;;;;5058653;28;20696;-85
2023/10/17 14:38:02;;;;;;;2.30;2.20;;;;;;;;;;5068840;28;20282;-85
2023/10/17 14:40:30;;;;;;;4.53;1.83;;;;;;;;;;5062471;28;20228;-85
2023/10/17 14:42:57;;;;;;;2.97;2.27;;;;;;;;;;5059269;28;20206;-85
2023/10/17 14:45:25;;;;;;;2.67;2.00;;;;;;;;;;5054969;28;20233;-85
2023/10/17 14:47:52;;;;;;;3.80;1.87;;;;;;;;;;5051817;28;20317;-85
2023/10/17 14:50:19;;;;;;;2.00;1.90;;;;;;;;;;5049841;28;20659;-85
2023/10/17 14:52:48;;;;;;;3.73;1.90;;;;;;;;;;5056580;28;20205;-85
2023/10/17 14:55:23;;;;;;;2.10;1.80;;;;;;;;;;5055469;28;20209;-85
2023/10/17 14:57:50;;;;;;;2.00;1.80;;;;;;;;;;5050168;28;20234;-85
2023/10/17 15:00:18;;;;;;;3.50;1.97;;;;;;;;;;5050385;28;20210;-85
2023/10/17 15:02:45;;;;;;;2.20;1.87;;;;;;;;;;5052682;28;20214;-85
2023/10/17 15:05:12;;;;;;;3.43;1.90;;;;;;;;;;5062735;28;20225;-85
2023/10/17 15:07:39;;;;;;;2.77;2.00;;;;;;;;;;5070100;28;20205;-86
2023/10/17 15:10:11;;;;;;;2.23;2.03;;;;;;;;;;5041777;28;20202;-86
2023/10/17 15:12:40;;;;;;;3.17;1.80;;;;;;;;;;5058738;28;20220;-86
2023/10/17 15:15:10;;;;;;;5.00;1.90;;;;;;;;;;5061534;28;20198;-86
2023/10/17 15:17:37;;;;;;;3.10;1.97;;;;;;;;;;5062403;28;20202;-85
2023/10/17 15:20:05;;;;;;;1.70;1.60;;;;;;;;;;5049303;28;20213;-86
2023/10/17 15:22:32;;;;;;;4.10;1.60;;;;;;;;;;5053155;28;20202;-85
2023/10/17 15:24:59;;;;;;;2.80;1.73;;;;;;;;;;5050278;28;20225;-86
2023/10/17 15:27:28;;;;;;;2.00;1.80;;;;;;;;;;5063915;28;20229;-86
2023/10/17 15:29:56;;;;;;;5.97;1.60;;;;;;;;;;5059935;28;20719;-85
2023/10/17 15:32:23;;;;;;;2.87;1.67;;;;;;;;;;5049407;28;20236;-85
2023/10/17 15:34:51;;;;;;;1.43;1.43;;;;;;;;;;5050401;28;20202;-85
2023/10/17 15:37:18;;;;;;;1.70;1.57;;;;;;;;;;5052831;28;20604;-85
2023/10/17 15:39:46;;;;;;;9.93;1.80;;;;;;;;;;5061267;28;20229;-85
2023/10/17 15:42:14;;;;;;;2.00;1.80;;;;;;;;;;5049366;28;20606;-85
2023/10/17 15:44:42;;;;;;;1.77;1.67;;;;;;;;;;5050370;28;20225;-85
2023/10/17 15:47:10;;;;;;;2.87;1.70;;;;;;;;;;5041544;28;20229;-85
2023/10/17 15:49:38;;;;;;;1.93;1.73;;;;;;;;;;5058716;28;20230;-85
2023/10/17 15:52:05;;;;;;;1.63;1.53;;;;;;;;;;5052307;28;20233;-86
2023/10/17 15:54:33;;;;;;;1.70;1.60;;;;;;;;;;5057092;28;20236;-85
2023/10/17 15:57:03;;;;;;;4.17;1.77;;;;;;;;;;5060703;28;20230;-87
2023/10/17 15:59:31;;;;;;;4.50;1.80;;;;;;;;;;5063539;28;20226;-87
2023/10/17 16:01:58;;;;;;;1.70;1.60;;;;;;;;;;5068078;28;20818;-86
2023/10/17 16:04:30;;;;;;;2.20;1.90;;;;;;;;;;5056138;28;20276;-84
2023/10/17 16:06:57;;;;;;;1.80;1.60;;;;;;;;;;5059152;28;20647;-85
2023/10/17 16:09:25;;;;;;;2.77;1.77;;;;;;;;;;5063903;28;20720;-86
2023/10/17 16:11:52;;;;;;;1.87;1.70;;;;;;;;;;5065765;28;20714;-85
2023/10/17 16:14:20;;;;;;;5.23;2.20;;;;;;;;;;5049770;28;20665;-85
2023/10/17 16:16:47;;;;;;;4.60;1.80;;;;;;;;;;5066070;28;20290;-85
2023/10/17 16:19:14;;;;;;;2.30;1.60;;;;;;;;;;5057306;28;20226;-85
2023/10/17 16:21:44;;;;;;;2.03;1.70;;;;;;;;;;5049197;28;20230;-85
2023/10/17 16:24:11;;;;;;;1.87;1.77;;;;;;;;;;5070234;28;20209;-85
2023/10/17 16:26:38;;;;;;;1.80;1.70;;;;;;;;;;5053552;28;20252;-85
2023/10/17 16:29:05;;;;;;;2.70;1.80;;;;;;;;;;5049495;28;20720;-85
2023/10/17 16:31:33;;;;;;;1.70;1.60;;;;;;;;;;5064377;28;20612;-85